Time;durP1;ratioP1;P1;durP2;ratioP2;P2;SDS_P1;SDS_P2;PMS_P1;PMS_P2;Temp;Humidity;BMP_temperature;BMP_pressure;BME280_temperature;BME280_humidity;BME280_pressure;Samples;Min_cycle;Max_cycle;Signal;HPM_P1;HPM_P2
2021/01/21 00:01:10;;;;;;;;;;;;;;;-8.60;72.15;100907.24;1747730;82;20283;-66
2021/01/21 00:03:37;;;;;;;;;;;;;;;-8.59;72.25;100902.13;1746801;82;20225;-66
2021/01/21 00:06:05;;;;;;;;;;;;;;;-8.56;72.29;100910.28;1746765;82;22757;-66
2021/01/21 00:08:32;;;;;;;;;;;;;;;-8.54;72.32;100914.98;1722340;82;22601;-67
2021/01/21 00:11:00;;;;;;;;;;;;;;;-8.51;72.38;100912.00;1745744;81;20230;-66
2021/01/21 00:13:27;;;;;;;;;;;;;;;-8.50;72.50;100910.30;1748294;82;20467;-66
2021/01/21 00:15:55;;;;;;;;;;;;;;;-8.49;72.56;100911.61;1746517;82;20222;-66
2021/01/21 00:18:23;;;;;;;;;;;;;;;-8.47;72.62;100907.78;1747505;80;22072;-66
2021/01/21 00:20:51;;;;;;;;;;;;;;;-8.45;72.74;100903.52;1743069;82;22530;-66
2021/01/21 00:23:18;;;;;;;;;;;;;;;-8.45;72.82;100904.38;1718922;82;20400;-66
2021/01/21 00:25:47;;;;;;;;;;;;;;;-8.41;72.84;100894.98;1736803;82;20491;-66
2021/01/21 00:28:14;;;;;;;;;;;;;;;-8.39;72.92;100903.56;1735849;82;20229;-66
2021/01/21 00:30:41;;;;;;;;;;;;;;;-8.39;72.94;100898.02;1719988;82;22049;-66
2021/01/21 00:33:09;;;;;;;;;;;;;;;-8.35;73.02;100899.30;1738628;81;22477;-66
2021/01/21 00:35:37;;;;;;;;;;;;;;;-8.35;73.04;100900.16;1750563;81;20224;-66
2021/01/21 00:38:04;;;;;;;;;;;;;;;-8.33;73.07;100897.14;1754881;81;20424;-66
2021/01/21 00:40:32;;;;;;;;;;;;;;;-8.32;73.13;100892.45;1752294;81;20403;-66
2021/01/21 00:43:00;;;;;;;;;;;;;;;-8.30;73.17;100890.74;1727602;83;22065;-66
2021/01/21 00:45:27;;;;;;;;;;;;;;;-8.28;73.18;100892.92;1743976;81;20228;-66
2021/01/21 00:47:55;;;;;;;;;;;;;;;-8.25;73.23;100891.64;1756059;80;20506;-66
2021/01/21 00:50:23;;;;;;;;;;;;;;;-8.23;73.20;100895.06;1744277;81;20308;-66
2021/01/21 00:53:10;;;;;;;;;;;;;;;-8.23;73.19;100889.08;1740330;81;20395;-66
2021/01/21 00:55:38;;;;;;;;;;;;;;;-8.20;73.23;100886.13;1757658;81;23063;-66
2021/01/21 00:58:26;;;;;;;;;;;;;;;-8.19;73.24;100883.14;1740324;81;20223;-66
2021/01/21 01:00:54;;;;;;;;;;;;;;;-8.19;73.24;100880.58;1755172;81;20220;-66
2021/01/21 01:03:41;;;;;;;;;;;;;;;-8.17;73.25;100882.30;1757507;81;20414;-66
2021/01/21 01:06:09;;;;;;;;;;;;;;;-8.15;73.29;100881.87;1757635;81;20224;-66
2021/01/21 01:08:37;;;;;;;;;;;;;;;-8.13;73.34;100876.32;1757615;81;22088;-66
2021/01/21 01:11:07;;;;;;;;;;;;;;;-8.10;73.33;100881.48;1729869;81;20378;-66
2021/01/21 01:13:34;;;;;;;;;;;;;;;-8.07;73.36;100869.95;1757700;81;20387;-66
2021/01/21 01:16:05;;;;;;;;;;;;;;;-8.04;73.38;100863.12;1709230;81;20303;-66
2021/01/21 01:18:34;;;;;;;;;;;;;;;-8.03;73.37;100863.55;1680695;84;20356;-66
2021/01/21 01:21:03;;;;;;;;;;;;;;;-8.02;73.37;100866.53;1712244;83;22020;-66
2021/01/21 01:23:31;;;;;;;;;;;;;;;-8.01;73.36;100862.69;1744478;81;20215;-66
2021/01/21 01:25:59;;;;;;;;;;;;;;;-8.00;73.29;100861.02;1751787;81;20180;-66
2021/01/21 01:28:26;;;;;;;;;;;;;;;-7.99;73.36;100858.88;1743050;81;20311;-67
2021/01/21 01:30:54;;;;;;;;;;;;;;;-7.98;73.35;100853.75;1752549;81;20225;-67
2021/01/21 01:33:22;;;;;;;;;;;;;;;-7.95;73.31;100850.34;1733221;81;22800;-67
2021/01/21 01:35:50;;;;;;;;;;;;;;;-7.94;73.33;100854.61;1722922;81;20345;-67
2021/01/21 01:38:19;;;;;;;;;;;;;;;-7.93;73.32;100854.61;1713646;82;20255;-67
2021/01/21 01:40:49;;;;;;;;;;;;;;;-7.91;73.18;100853.33;1709070;84;20492;-66
2021/01/21 01:43:18;;;;;;;;;;;;;;;-7.92;73.17;100847.77;1679133;84;20238;-67
2021/01/21 01:45:48;;;;;;;;;;;;;;;-7.91;73.11;100851.65;1707495;84;21900;-67
2021/01/21 01:48:19;;;;;;;;;;;;;;;-7.89;72.96;100849.09;1708191;84;20365;-67
2021/01/21 01:50:48;;;;;;;;;;;;;;;-7.90;72.92;100857.20;1708279;84;20455;-67
2021/01/21 01:53:18;;;;;;;;;;;;;;;-7.88;72.92;100845.23;1708697;84;20592;-67
2021/01/21 01:55:47;;;;;;;;;;;;;;;-7.87;72.79;100843.10;1707960;84;20249;-68
2021/01/21 01:58:18;;;;;;;;;;;;;;;-7.86;72.79;100838.41;1693799;83;21917;-66
2021/01/21 02:00:47;;;;;;;;;;;;;;;-7.84;72.65;100840.97;1690502;83;20233;-66
2021/01/21 02:03:14;;;;;;;;;;;;;;;-7.83;72.62;100849.09;1678510;84;20312;-66
2021/01/21 02:05:45;;;;;;;;;;;;;;;-7.83;72.60;100846.09;1703554;84;20258;-66
2021/01/21 02:08:12;;;;;;;;;;;;;;;-7.81;72.43;100851.25;1704021;83;20220;-66
2021/01/21 02:10:40;;;;;;;;;;;;;;;-7.82;72.20;100840.14;1707528;84;23009;-66
2021/01/21 02:13:31;;;;;;;;;;;;;;;-7.82;72.04;100831.56;1707453;84;20387;-68
2021/01/21 02:16:19;;;;;;;;;;;;;;;-7.81;71.99;100823.05;1708730;84;20248;-67
2021/01/21 02:18:57;;;;;;;;;;;;;;;-7.80;71.95;100825.61;1707639;84;20232;-67
2021/01/21 02:21:40;;;;;;;;;;;;;;;-7.79;71.84;100835.02;1706160;84;20228;-66
2021/01/21 02:24:27;;;;;;;;;;;;;;;-7.77;71.67;100838.86;1709074;83;22066;-67
2021/01/21 02:26:56;;;;;;;;;;;;;;;-7.77;71.43;100838.00;1707947;84;20253;-66
2021/01/21 02:29:31;;;;;;;;;;;;;;;-7.77;71.04;100832.45;1677914;84;35081;-67
2021/01/21 02:32:14;;;;;;;;;;;;;;;-7.76;70.98;100823.90;1678624;84;20504;-66
2021/01/21 02:35:04;;;;;;;;;;;;;;;-7.75;70.93;100815.35;1708003;82;20255;-66
2021/01/21 02:37:31;;;;;;;;;;;;;;;-7.76;70.81;100806.37;1700050;83;22151;-66
2021/01/21 02:40:04;;;;;;;;;;;;;;;-7.77;70.68;100802.95;1685919;83;20238;-66
2021/01/21 02:42:52;;;;;;;;;;;;;;;-7.76;70.69;100807.23;1711983;83;20253;-67
2021/01/21 02:45:22;;;;;;;;;;;;;;;-7.76;70.63;100816.20;1712852;84;20516;-67
2021/01/21 02:47:51;;;;;;;;;;;;;;;-7.75;70.68;100823.05;1713298;83;20220;-67
2021/01/21 02:50:19;;;;;;;;;;;;;;;-7.73;70.62;100830.30;1694195;83;23367;-68
2021/01/21 02:52:53;;;;;;;;;;;;;;;-7.73;70.68;100827.73;1717263;83;20447;-67
2021/01/21 02:55:41;;;;;;;;;;;;;;;-7.69;70.65;100815.80;1717516;83;20439;-67
2021/01/21 02:58:16;;;;;;;;;;;;;;;-7.68;70.66;100819.64;1760050;81;20375;-67
2021/01/21 03:00:44;;;;;;;;;;;;;;;-7.65;70.70;100820.92;1741931;81;20241;-66
2021/01/21 03:03:17;;;;;;;;;;;;;;;-7.64;70.68;100819.21;1708569;81;22131;-66
2021/01/21 03:05:44;;;;;;;;;;;;;;;-7.62;70.66;100824.80;1760585;81;20846;-66
2021/01/21 03:08:13;;;;;;;;;;;;;;;-7.58;70.75;100828.21;1760298;81;20220;-66
2021/01/21 03:10:41;;;;;;;;;;;;;;;-7.58;70.76;100825.64;1760438;81;22696;-66
2021/01/21 03:13:08;;;;;;;;;;;;;;;-7.56;70.80;100818.38;1756692;81;20796;-66
2021/01/21 03:15:38;;;;;;;;;;;;;;;-7.52;70.87;100816.27;1757715;81;21917;-66
2021/01/21 03:18:08;;;;;;;;;;;;;;;-7.50;70.86;100814.98;1759037;81;20220;-66
2021/01/21 03:20:36;;;;;;;;;;;;;;;-7.49;70.79;100806.42;1759312;81;20220;-66
2021/01/21 03:23:04;;;;;;;;;;;;;;;-7.46;70.75;100812.83;1758878;81;21137;-66
2021/01/21 03:25:34;;;;;;;;;;;;;;;-7.43;70.70;100813.25;1758711;81;20228;-66
2021/01/21 03:28:04;;;;;;;;;;;;;;;-7.40;70.69;100815.84;1755278;80;21846;-66
2021/01/21 03:30:33;;;;;;;;;;;;;;;-7.38;70.70;100810.27;1747905;82;20339;-66
2021/01/21 03:33:04;;;;;;;;;;;;;;;-7.37;70.78;100808.98;1759203;81;20224;-67
2021/01/21 03:35:34;;;;;;;;;;;;;;;-7.34;70.79;100811.55;1759720;80;20450;-66
2021/01/21 03:38:02;;;;;;;;;;;;;;;-7.31;70.85;100810.28;1756213;81;20217;-67
2021/01/21 03:40:31;;;;;;;;;;;;;;;-7.29;70.98;100807.28;1769606;81;22815;-67
2021/01/21 03:43:00;;;;;;;;;;;;;;;-7.26;71.06;100805.98;1763273;80;20387;-67
2021/01/21 03:45:46;;;;;;;;;;;;;;;-7.23;71.20;100804.73;1769094;81;20227;-68
2021/01/21 03:48:14;;;;;;;;;;;;;;;-7.20;71.21;100807.72;1773662;80;20310;-66
2021/01/21 03:51:00;;;;;;;;;;;;;;;-7.17;71.36;100807.70;1779673;80;20231;-66
2021/01/21 03:53:29;;;;;;;;;;;;;;;-7.16;71.52;100797.01;1788429;80;21346;-67
2021/01/21 03:56:12;;;;;;;;;;;;;;;-7.12;71.62;100800.88;1782361;80;20380;-66
2021/01/21 03:58:41;;;;;;;;;;;;;;;-7.09;71.76;100802.14;1766342;81;20217;-66
2021/01/21 04:01:10;;;;;;;;;;;;;;;-7.07;71.79;100808.12;1753302;81;20314;-66
2021/01/21 04:03:38;;;;;;;;;;;;;;;-7.04;71.79;100813.71;1769611;81;20502;-65
2021/01/21 04:06:08;;;;;;;;;;;;;;;-7.02;71.91;100804.29;1778017;79;22071;-66
2021/01/21 04:08:36;;;;;;;;;;;;;;;-7.00;71.99;100813.69;1785799;78;20322;-65
2021/01/21 04:11:10;;;;;;;;;;;;;;;-6.99;72.07;100815.39;1719935;82;20227;-67
2021/01/21 04:13:40;;;;;;;;;;;;;;;-6.96;72.21;100827.37;1735296;82;20691;-67
2021/01/21 04:16:10;;;;;;;;;;;;;;;-6.96;72.35;100821.80;1755244;81;20220;-67
2021/01/21 04:18:38;;;;;;;;;;;;;;;-6.93;72.43;100818.41;1725981;81;24299;-66
2021/01/21 04:21:07;;;;;;;;;;;;;;;-6.92;72.58;100822.24;1725920;83;20230;-67
2021/01/21 04:23:35;;;;;;;;;;;;;;;-6.90;72.67;100818.81;1726077;83;20230;-67
2021/01/21 04:26:05;;;;;;;;;;;;;;;-6.87;72.75;100822.66;1724951;83;21278;-67
2021/01/21 04:28:36;;;;;;;;;;;;;;;-6.87;72.76;100819.66;1726206;83;20402;-66
2021/01/21 04:31:04;;;;;;;;;;;;;;;-6.86;72.82;100822.65;1725919;83;21933;-66
2021/01/21 04:33:32;;;;;;;;;;;;;;;-6.85;72.88;100822.22;1731625;81;21931;-68
2021/01/21 04:36:02;;;;;;;;;;;;;;;-6.86;72.96;100817.52;1755635;81;20407;-66
2021/01/21 04:38:32;;;;;;;;;;;;;;;-6.86;73.06;100820.52;1750999;81;21198;-66
2021/01/21 04:41:03;;;;;;;;;;;;;;;-6.86;73.20;100822.65;1749187;82;20487;-67
2021/01/21 04:43:48;;;;;;;;;;;;;;;-6.86;73.28;100823.08;1748169;82;22078;-66
2021/01/21 04:46:17;;;;;;;;;;;;;;;-6.85;73.33;100819.25;1751425;82;20398;-66
2021/01/21 04:48:47;;;;;;;;;;;;;;;-6.84;73.41;100822.24;1689530;84;20243;-66
2021/01/21 04:51:16;;;;;;;;;;;;;;;-6.82;73.47;100814.53;1708925;84;21363;-66
2021/01/21 04:53:49;;;;;;;;;;;;;;;-6.81;73.54;100811.10;1687190;83;20236;-66
2021/01/21 04:56:31;;;;;;;;;;;;;;;-6.80;73.65;100801.25;1708885;83;22180;-66
2021/01/21 04:59:10;;;;;;;;;;;;;;;-6.78;73.79;100809.38;1705319;84;20220;-65
2021/01/21 05:01:43;;;;;;;;;;;;;;;-6.78;73.80;100809.80;1702818;84;20245;-65
2021/01/21 05:04:12;;;;;;;;;;;;;;;-6.77;73.91;100810.22;1708802;84;21193;-66
2021/01/21 05:06:44;;;;;;;;;;;;;;;-6.77;74.03;100808.94;1708810;84;20503;-67
2021/01/21 05:09:14;;;;;;;;;;;;;;;-6.78;74.08;100799.09;1707864;82;22096;-67
2021/01/21 05:11:41;;;;;;;;;;;;;;;-6.80;74.08;100799.53;1686904;84;21159;-67
2021/01/21 05:14:29;;;;;;;;;;;;;;;-6.81;74.15;100797.83;1702659;84;20283;-68
2021/01/21 05:17:16;;;;;;;;;;;;;;;-6.82;74.43;100801.69;1693304;84;20313;-66
2021/01/21 05:19:52;;;;;;;;;;;;;;;-6.83;74.50;100794.41;1673346;84;20690;-63
2021/01/21 05:22:22;;;;;;;;;;;;;;;-6.82;74.67;100801.69;1659499;85;24307;-64
2021/01/21 05:24:52;;;;;;;;;;;;;;;-6.80;74.74;100799.97;1699691;84;20249;-67
2021/01/21 05:27:27;;;;;;;;;;;;;;;-6.79;74.81;100799.95;1708101;84;20427;-65
2021/01/21 05:29:58;;;;;;;;;;;;;;;-6.78;74.90;100798.24;1695094;84;21154;-66
2021/01/21 05:32:26;;;;;;;;;;;;;;;-6.77;74.96;100794.38;1684566;84;20797;-67
2021/01/21 05:34:59;;;;;;;;;;;;;;;-6.77;75.00;100796.95;1664314;82;22403;-66
2021/01/21 05:37:29;;;;;;;;;;;;;;;-6.76;75.05;100802.94;1708000;83;20323;-64
2021/01/21 05:40:15;;;;;;;;;;;;;;;-6.76;75.07;100802.51;1666246;84;20216;-65
2021/01/21 05:42:54;;;;;;;;;;;;;;;-6.75;75.15;100796.97;1679353;84;20523;-66
2021/01/21 05:45:26;;;;;;;;;;;;;;;-6.75;75.25;100802.97;1671181;84;20834;-66
2021/01/21 05:47:59;;;;;;;;;;;;;;;-6.73;75.34;100796.10;1704954;84;22117;-65
2021/01/21 05:50:29;;;;;;;;;;;;;;;-6.72;75.36;100791.82;1707510;84;20241;-65
2021/01/21 05:52:58;;;;;;;;;;;;;;;-6.70;75.50;100798.66;1708279;84;20213;-66
2021/01/21 05:55:28;;;;;;;;;;;;;;;-6.68;75.60;100790.94;1690178;84;21159;-65
2021/01/21 05:57:56;;;;;;;;;;;;;;;-6.66;75.76;100790.10;1690867;84;20237;-65
2021/01/21 06:00:27;;;;;;;;;;;;;;;-6.62;75.84;100788.37;1706936;84;21917;-66
2021/01/21 06:03:03;;;;;;;;;;;;;;;-6.60;75.96;100785.36;1699077;84;20228;-67
2021/01/21 06:05:47;;;;;;;;;;;;;;;-6.56;76.06;100788.77;1688045;84;20224;-67
2021/01/21 06:08:15;;;;;;;;;;;;;;;-6.53;76.24;100789.63;1679518;84;20481;-68
2021/01/21 06:10:43;;;;;;;;;;;;;;;-6.51;76.31;100794.33;1694835;84;20244;-67
2021/01/21 06:13:12;;;;;;;;;;;;;;;-6.48;76.36;100799.87;1708437;84;22001;-67
2021/01/21 06:15:39;;;;;;;;;;;;;;;-6.46;76.42;100800.32;1669636;84;21733;-67
2021/01/21 06:18:07;;;;;;;;;;;;;;;-6.45;76.48;100804.59;1704922;84;20229;-67
2021/01/21 06:20:53;;;;;;;;;;;;;;;-6.43;76.50;100805.44;1680961;83;20494;-67
2021/01/21 06:23:22;;;;;;;;;;;;;;;-6.42;76.54;100803.29;1681583;84;20220;-66
2021/01/21 06:25:55;;;;;;;;;;;;;;;-6.39;76.54;100795.99;1694205;84;21230;-66
2021/01/21 06:28:22;;;;;;;;;;;;;;;-6.36;76.63;100796.00;1705149;84;20267;-67
2021/01/21 06:30:52;;;;;;;;;;;;;;;-6.33;76.76;100802.84;1701047;84;20351;-67
2021/01/21 06:33:22;;;;;;;;;;;;;;;-6.31;76.84;100797.25;1698118;82;20314;-68
2021/01/21 06:35:53;;;;;;;;;;;;;;;-6.29;76.90;100804.09;1716841;82;20234;-68
2021/01/21 06:38:23;;;;;;;;;;;;;;;-6.27;76.97;100806.25;1700794;82;22810;-68
2021/01/21 06:40:52;;;;;;;;;;;;;;;-6.25;77.02;100803.67;1707467;84;20792;-68
2021/01/21 06:43:28;;;;;;;;;;;;;;;-6.25;77.13;100783.95;1706800;84;20300;-68
2021/01/21 06:45:59;;;;;;;;;;;;;;;-6.23;77.23;100794.23;1680203;85;20325;-67
2021/01/21 06:48:28;;;;;;;;;;;;;;;-6.22;77.41;100793.36;1700988;84;20435;-68
2021/01/21 06:50:56;;;;;;;;;;;;;;;-6.21;77.52;100804.06;1707577;82;22128;-68
2021/01/21 06:53:24;;;;;;;;;;;;;;;-6.21;77.60;100798.92;1692391;84;21385;-68
2021/01/21 06:55:52;;;;;;;;;;;;;;;-6.20;77.66;100798.06;1700828;84;20241;-68
2021/01/21 06:58:45;;;;;;;;;;;;;;;-6.19;77.73;100795.48;1691677;84;20323;-68
2021/01/21 07:01:32;;;;;;;;;;;;;;;-6.19;77.82;100791.62;1700882;83;20288;-68
2021/01/21 07:04:17;;;;;;;;;;;;;;;-6.19;77.91;100797.20;1696467;82;21907;-69
2021/01/21 07:06:58;;;;;;;;;;;;;;;-6.17;77.99;100792.50;1693355;84;20256;-69
2021/01/21 07:09:29;;;;;;;;;;;;;;;-6.14;78.11;100794.19;1696696;84;20215;-70
2021/01/21 07:11:59;;;;;;;;;;;;;;;-6.13;78.16;100794.17;1699246;84;21368;-67
2021/01/21 07:14:29;;;;;;;;;;;;;;;-6.12;78.24;100789.45;1703815;83;20247;-70
2021/01/21 07:16:57;;;;;;;;;;;;;;;-6.09;78.38;100797.58;1702878;84;22004;-66
2021/01/21 07:19:38;;;;;;;;;;;;;;;-6.05;78.48;100810.86;1656189;84;22495;-67
2021/01/21 07:22:20;;;;;;;;;;;;;;;-6.04;78.56;100797.14;1697815;84;20291;-68
2021/01/21 07:25:03;;;;;;;;;;;;;;;-6.01;78.65;100796.26;1697123;84;20329;-68
2021/01/21 07:27:31;;;;;;;;;;;;;;;-5.99;78.76;100795.38;1700379;83;20288;-66
2021/01/21 07:30:16;;;;;;;;;;;;;;;-5.95;78.81;100797.09;1704485;83;20471;-67
2021/01/21 07:32:44;;;;;;;;;;;;;;;-5.93;78.92;100794.51;1697288;83;20226;-67
2021/01/21 07:35:35;;;;;;;;;;;;;;;-5.89;79.01;100789.72;1701308;82;20271;-68
2021/01/21 07:38:02;;;;;;;;;;;;;;;-5.85;79.14;100795.29;1706744;83;20477;-66
2021/01/21 07:40:45;;;;;;;;;;;;;;;-5.85;79.30;100792.28;1707884;83;20288;-67
2021/01/21 07:43:13;;;;;;;;;;;;;;;-5.83;79.40;100790.55;1705058;84;21916;-66
2021/01/21 07:45:44;;;;;;;;;;;;;;;-5.81;79.54;100779.81;1691437;83;20286;-66
2021/01/21 07:48:21;;;;;;;;;;;;;;;-5.78;79.65;100774.67;1704278;84;20578;-65
2021/01/21 07:50:49;;;;;;;;;;;;;;;-5.74;79.75;100770.78;1704642;83;21366;-68
2021/01/21 07:53:26;;;;;;;;;;;;;;;-5.71;79.86;100781.05;1672365;84;20275;-66
2021/01/21 07:55:54;;;;;;;;;;;;;;;-5.67;79.97;100782.31;1679781;84;22921;-66
2021/01/21 07:58:27;;;;;;;;;;;;;;;-5.63;79.99;100777.56;1664212;85;20361;-66
2021/01/21 08:00:58;;;;;;;;;;;;;;;-5.59;80.03;100780.98;1672021;85;20697;-65
2021/01/21 08:03:31;;;;;;;;;;;;;;;-5.54;80.10;100785.22;1661186;85;20321;-66
2021/01/21 08:06:09;;;;;;;;;;;;;;;-5.50;80.15;100779.20;1670764;85;20296;-66
2021/01/21 08:08:42;;;;;;;;;;;;;;;-5.44;80.17;100783.42;1656278;85;22095;-66
2021/01/21 08:11:11;;;;;;;;;;;;;;;-5.38;80.24;100783.83;1671409;85;20227;-66
2021/01/21 08:13:39;;;;;;;;;;;;;;;-5.32;80.26;100781.19;1662323;85;20236;-65
2021/01/21 08:16:06;;;;;;;;;;;;;;;-5.27;80.28;100776.86;1676858;85;21317;-66
2021/01/21 08:18:35;;;;;;;;;;;;;;;-5.23;80.34;100776.81;1679603;85;20258;-65
2021/01/21 08:21:25;;;;;;;;;;;;;;;-5.17;80.35;100777.64;1680852;84;22966;-65
2021/01/21 08:24:03;;;;;;;;;;;;;;;-5.12;80.41;100765.13;1707717;84;21273;-65
2021/01/21 08:26:31;;;;;;;;;;;;;;;-5.06;80.43;100769.37;1700575;84;20281;-66
2021/01/21 08:28:59;;;;;;;;;;;;;;;-5.02;80.42;100769.36;1677200;84;21347;-67
2021/01/21 08:31:32;;;;;;;;;;;;;;;-4.99;80.50;100760.30;1690622;84;20299;-67
2021/01/21 08:34:00;;;;;;;;;;;;;;;-4.93;80.56;100758.08;1701134;82;22101;-66
2021/01/21 08:36:28;;;;;;;;;;;;;;;-4.85;80.52;100756.28;1707346;82;20513;-66
2021/01/21 08:38:55;;;;;;;;;;;;;;;-4.77;80.59;100763.94;1707245;84;20478;-67
2021/01/21 08:41:22;;;;;;;;;;;;;;;-4.72;80.59;100761.74;1743812;81;20476;-66
2021/01/21 08:43:50;;;;;;;;;;;;;;;-4.66;80.57;100756.94;1752754;81;20316;-66
2021/01/21 08:46:21;;;;;;;;;;;;;;;-4.65;80.58;100755.63;1741815;81;20631;-66
2021/01/21 08:48:49;;;;;;;;;;;;;;;-4.60;80.62;100755.59;1729816;81;20565;-67
2021/01/21 08:51:41;;;;;;;;;;;;;;;-4.57;80.58;100751.68;1751822;81;20642;-68
2021/01/21 08:54:19;;;;;;;;;;;;;;;-4.54;80.60;100749.50;1745796;81;20277;-67
2021/01/21 08:57:09;;;;;;;;;;;;;;;-4.49;80.63;100738.27;1750745;81;20268;-65
2021/01/21 08:59:39;;;;;;;;;;;;;;;-4.42;80.64;100750.66;1737712;80;22074;-68
2021/01/21 09:02:07;;;;;;;;;;;;;;;-4.37;80.60;100741.13;1743182;81;20368;-68
2021/01/21 09:04:35;;;;;;;;;;;;;;;-4.34;80.61;100741.97;1748463;81;20279;-66
2021/01/21 09:07:05;;;;;;;;;;;;;;;-4.31;80.57;100734.61;1729017;82;20380;-67
2021/01/21 09:09:35;;;;;;;;;;;;;;;-4.29;80.56;100738.02;1753345;81;20248;-67
2021/01/21 09:12:20;;;;;;;;;;;;;;;-4.27;80.54;100725.95;1753877;81;22061;-68
2021/01/21 09:15:05;;;;;;;;;;;;;;;-4.23;80.50;100719.05;1723041;81;20227;-66
2021/01/21 09:17:34;;;;;;;;;;;;;;;-4.19;80.54;100712.96;1708554;84;20213;-65
2021/01/21 09:20:19;;;;;;;;;;;;;;;-4.14;80.51;100711.19;1695014;84;20426;-65
2021/01/21 09:22:49;;;;;;;;;;;;;;;-4.10;80.51;100719.28;1711729;84;20231;-65
2021/01/21 09:25:25;;;;;;;;;;;;;;;-4.05;80.45;100714.48;1710604;84;21909;-65
2021/01/21 09:27:54;;;;;;;;;;;;;;;-4.02;80.48;100713.59;1686517;84;21286;-66
2021/01/21 09:30:24;;;;;;;;;;;;;;;-3.98;80.45;100712.66;1710327;84;20217;-66
2021/01/21 09:32:52;;;;;;;;;;;;;;;-3.94;80.45;100702.72;1710563;84;21439;-68
2021/01/21 09:35:22;;;;;;;;;;;;;;;-3.87;80.46;100711.20;1710258;84;20697;-66
2021/01/21 09:37:53;;;;;;;;;;;;;;;-3.83;80.44;100709.86;1711336;79;23020;-66
2021/01/21 09:40:29;;;;;;;;;;;;;;;-3.80;80.41;100705.93;1694345;82;21072;-64
2021/01/21 09:42:58;;;;;;;;;;;;;;;-3.75;80.35;100704.58;1713542;83;20307;-67
2021/01/21 09:45:27;;;;;;;;;;;;;;;-3.71;80.30;100706.67;1711129;82;20299;-66
2021/01/21 09:47:55;;;;;;;;;;;;;;;-3.66;80.28;100704.88;1679214;84;20417;-65
2021/01/21 09:50:24;;;;;;;;;;;;;;;-3.62;80.25;100714.27;1680165;82;22083;-65
2021/01/21 09:52:59;;;;;;;;;;;;;;;-3.59;80.18;100707.31;1688291;82;20362;-66
2021/01/21 09:55:28;;;;;;;;;;;;;;;-3.55;80.12;100714.59;1758376;80;20561;-68
2021/01/21 09:57:57;;;;;;;;;;;;;;;-3.53;80.04;100712.39;1715139;82;20314;-68
2021/01/21 10:00:25;;;;;;;;;;;;;;;-3.48;80.02;100714.87;1685873;82;20308;-66
2021/01/21 10:02:53;;;;;;;;;;;;;;;-3.45;79.98;100716.14;1679165;82;21899;-66
2021/01/21 10:05:23;;;;;;;;;;;;;;;-3.41;79.88;100714.35;1697640;82;20369;-67
2021/01/21 10:07:51;;;;;;;;;;;;;;;-3.39;79.86;100707.42;1724047;81;20285;-67
2021/01/21 10:10:20;;;;;;;;;;;;;;;-3.35;79.82;100711.23;1690259;83;20397;-67
2021/01/21 10:12:48;;;;;;;;;;;;;;;-3.33;79.74;100711.20;1704837;84;20284;-66
2021/01/21 10:15:15;;;;;;;;;;;;;;;-3.32;79.72;100699.99;1705249;82;22063;-67
2021/01/21 10:17:43;;;;;;;;;;;;;;;-3.28;79.74;100701.63;1713961;82;22398;-68
2021/01/21 10:20:12;;;;;;;;;;;;;;;-3.26;79.73;100705.91;1702853;82;20675;-67
2021/01/21 10:22:40;;;;;;;;;;;;;;;-3.23;79.73;100694.22;1721743;82;20451;-67
2021/01/21 10:25:08;;;;;;;;;;;;;;;-3.20;79.73;100686.84;1741613;81;20290;-68
2021/01/21 10:27:36;;;;;;;;;;;;;;;-3.14;79.72;100691.07;1722674;81;21969;-66
2021/01/21 10:30:09;;;;;;;;;;;;;;;-3.10;79.75;100685.80;1680949;82;20297;-68
2021/01/21 10:32:47;;;;;;;;;;;;;;;-3.04;79.73;100684.84;1699498;82;20557;-68
2021/01/21 10:35:15;;;;;;;;;;;;;;;-2.98;79.72;100674.41;1714680;82;21237;-68
2021/01/21 10:37:42;;;;;;;;;;;;;;;-2.93;79.74;100682.47;1718820;81;20474;-64
2021/01/21 10:40:11;;;;;;;;;;;;;;;-2.89;79.72;100675.08;1735068;81;21914;-68
2021/01/21 10:42:39;;;;;;;;;;;;;;;-2.85;79.72;100675.86;1735367;81;20447;-66
2021/01/21 10:45:09;;;;;;;;;;;;;;;-2.79;79.71;100672.32;1719402;81;20292;-68
2021/01/21 10:47:37;;;;;;;;;;;;;;;-2.75;79.70;100667.04;1714774;81;20492;-67
2021/01/21 10:50:06;;;;;;;;;;;;;;;-2.72;79.68;100655.34;1736806;81;20298;-67
2021/01/21 10:52:36;;;;;;;;;;;;;;;-2.67;79.71;100661.72;1734510;81;22120;-71
2021/01/21 10:55:04;;;;;;;;;;;;;;;-2.66;79.64;100659.09;1734597;81;21079;-67
2021/01/21 10:57:32;;;;;;;;;;;;;;;-2.63;79.66;100659.47;1731348;81;20269;-66
2021/01/21 11:00:00;;;;;;;;;;;;;;;-2.58;79.65;100668.44;1718632;81;20461;-67
2021/01/21 11:02:29;;;;;;;;;;;;;;;-2.54;79.66;100657.13;1727351;81;20544;-68
2021/01/21 11:04:57;;;;;;;;;;;;;;;-2.50;79.61;100663.96;1736085;81;22070;-66
2021/01/21 11:07:25;;;;;;;;;;;;;;;-2.47;79.61;100667.77;1725428;81;20282;-68
2021/01/21 11:09:53;;;;;;;;;;;;;;;-2.44;79.60;100654.76;1736085;81;20205;-69
2021/01/21 11:12:21;;;;;;;;;;;;;;;-2.40;79.57;100648.20;1728994;81;20314;-68
2021/01/21 11:14:49;;;;;;;;;;;;;;;-2.36;79.56;100652.41;1748418;81;20273;-67
2021/01/21 11:17:16;;;;;;;;;;;;;;;-2.32;79.51;100652.77;1731390;82;21898;-67
2021/01/21 11:19:46;;;;;;;;;;;;;;;-2.29;79.49;100640.20;1727697;82;20390;-66
2021/01/21 11:22:13;;;;;;;;;;;;;;;-2.25;79.51;100639.23;1711007;82;20275;-68
2021/01/21 11:24:41;;;;;;;;;;;;;;;-2.22;79.48;100633.13;1734009;81;20414;-68
2021/01/21 11:27:08;;;;;;;;;;;;;;;-2.21;79.46;100639.59;1709865;81;20276;-66
2021/01/21 11:29:36;;;;;;;;;;;;;;;-2.21;79.39;100630.54;1723695;81;22159;-68
2021/01/21 11:32:04;;;;;;;;;;;;;;;-2.18;79.43;100619.27;1720268;81;22522;-68
2021/01/21 11:34:32;;;;;;;;;;;;;;;-2.13;79.50;100612.22;1707280;81;20496;-68
2021/01/21 11:37:00;;;;;;;;;;;;;;;-2.08;79.46;100603.48;1723202;81;20405;-68
2021/01/21 11:39:28;;;;;;;;;;;;;;;-2.03;79.36;100606.82;1735896;80;20275;-69
2021/01/21 11:41:55;;;;;;;;;;;;;;;-1.99;79.26;100606.29;1778369;80;22054;-67
2021/01/21 11:44:23;;;;;;;;;;;;;;;-1.96;79.11;100598.44;1758020;80;20385;-69
2021/01/21 11:46:50;;;;;;;;;;;;;;;-1.87;79.05;100594.33;1765222;79;20230;-68
2021/01/21 11:49:18;;;;;;;;;;;;;;;-1.78;78.83;100586.78;1778188;80;21238;-67
2021/01/21 11:51:46;;;;;;;;;;;;;;;-1.70;78.55;100590.03;1749649;80;20249;-69
2021/01/21 11:54:14;;;;;;;;;;;;;;;-1.70;78.21;100593.06;1743479;80;22113;-68
2021/01/21 11:56:41;;;;;;;;;;;;;;;-1.74;78.02;100590.98;1742573;79;20379;-68
2021/01/21 11:59:08;;;;;;;;;;;;;;;-1.77;77.88;100590.63;1738636;82;20228;-65
2021/01/21 12:01:36;;;;;;;;;;;;;;;-1.77;77.92;100596.25;1728635;80;21461;-67
2021/01/21 12:04:04;;;;;;;;;;;;;;;-1.78;77.90;100592.81;1742280;80;20299;-70
2021/01/21 12:06:33;;;;;;;;;;;;;;;-1.77;77.81;100589.77;1720836;82;21915;-65
2021/01/21 12:09:02;;;;;;;;;;;;;;;-1.76;77.78;100588.44;1776311;80;20240;-67
2021/01/21 12:11:32;;;;;;;;;;;;;;;-1.76;77.62;100588.88;1756565;80;20261;-68
2021/01/21 12:14:01;;;;;;;;;;;;;;;-1.78;77.52;100588.08;1724643;82;20318;-67
2021/01/21 12:16:29;;;;;;;;;;;;;;;-1.81;77.53;100581.69;1718363;83;20261;-67
2021/01/21 12:18:57;;;;;;;;;;;;;;;-1.81;77.54;100584.28;1751901;80;24235;-66
2021/01/21 12:21:27;;;;;;;;;;;;;;;-1.82;77.55;100583.88;1732247;81;20262;-67
2021/01/21 12:23:56;;;;;;;;;;;;;;;-1.83;77.55;100583.03;1718480;80;20224;-66
2021/01/21 12:26:24;;;;;;;;;;;;;;;-1.81;77.59;100584.28;1744565;80;20316;-67
2021/01/21 12:28:51;;;;;;;;;;;;;;;-1.82;77.45;100582.59;1743197;80;20672;-67
2021/01/21 12:31:21;;;;;;;;;;;;;;;-1.87;77.33;100576.66;1730231;80;21409;-69
2021/01/21 12:33:49;;;;;;;;;;;;;;;-1.93;77.27;100578.09;1740581;80;22596;-67
2021/01/21 12:36:17;;;;;;;;;;;;;;;-1.98;77.28;100587.73;1694189;80;20299;-65
2021/01/21 12:38:44;;;;;;;;;;;;;;;-2.02;77.29;100585.22;1735479;80;20451;-69
2021/01/21 12:41:11;;;;;;;;;;;;;;;-2.04;77.29;100584.38;1723641;82;20295;-67
2021/01/21 12:43:39;;;;;;;;;;;;;;;-1.98;77.38;100571.75;1734358;80;22381;-69
2021/01/21 12:46:07;;;;;;;;;;;;;;;-1.82;77.52;100576.11;1719522;82;20270;-67
2021/01/21 12:48:35;;;;;;;;;;;;;;;-1.61;77.45;100573.41;1733873;80;20283;-66
2021/01/21 12:51:03;;;;;;;;;;;;;;;-1.41;77.34;100568.54;1733989;80;20457;-67
2021/01/21 12:53:30;;;;;;;;;;;;;;;-1.22;77.14;100568.89;1737726;80;20238;-67
2021/01/21 12:55:57;;;;;;;;;;;;;;;-1.06;76.81;100571.88;1768711;79;21895;-69